Albion, Michigan
Current Conditions -  °F | °C
As of 8:14 PM on Tuesday 21 Oct 2014 (Local Time) from KRMY Reporting Station
Clear Clear  
Wind Chill: 40°   Ceiling: Unl
Heat Index: 40°   Visibility: 10mi
Dew Point: 35°   Wind: 0mph
Humidity: 81%   Direction: NA
Pressure: 30.19"   Gusts: NA
Location:  42.25°N, 84.75°W
Report Text: KRMY 220014Z AUTO 00000KT 10SM CLR 05/02 A3019 RMK AO2 T00450015
Loading
Personal Weather Stations






























Interactive Weather Map New forecast layout! Learn more

10-Day Weather Forecast

Advertisements
Track Severe Weather on mobile